Orbital elements of SL-8 DEB
| Launched | 14 March 1965 |
| Flight ended | – |
| Launch site | Tyuratam Missile and Space Center, Kazakhstan (Also known as Baikonur Cosmodrome) |
| Owner | Commonwealth of Independent States (former USSR) |
| NORAD ID | 2334 |
| Date fetched |
Epoch osculation |
Inc. [°] |
Ecc. | RA asc node [hr] |
Arg Peri. [°] |
Mean anom [°] |
Mean motion [rev/day] |
Abs. mag |
| Date fetched |
Epoch osculation |
Inc. [°] |
Ecc. | RA asc node [hr] |
Arg Peri. [°] |
Mean anom [°] |
Mean motion [rev/day] |
Abs. mag |
| 2026 May 04 17:57 | 2026 Apr 30 08:13:30 | 55.6724 | 0.05834 | 7.3872 | 301.9392 | 52.6070 | 13.12248 | – |
| 2026 May 03 17:57 | 2026 Apr 30 08:13:30 | 55.6724 | 0.05834 | 7.3872 | 301.9392 | 52.6070 | 13.12248 | – |
| 2026 May 02 17:57 | 2026 Apr 30 08:13:30 | 55.6724 | 0.05834 | 7.3872 | 301.9392 | 52.6070 | 13.12248 | – |
| 2026 May 01 17:56 | 2026 Apr 30 08:13:30 | 55.6724 | 0.05834 | 7.3872 | 301.9392 | 52.6070 | 13.12248 | – |
| 2026 Apr 30 17:56 | 2026 Apr 30 08:13:30 | 55.6724 | 0.05834 | 7.3872 | 301.9392 | 52.6070 | 13.12248 | – |
| 2026 Apr 29 17:57 | 2026 Apr 24 05:57:27 | 55.6726 | 0.05832 | 8.6359 | 292.1001 | 52.6070 | 13.12248 | – |
| 2026 Apr 28 17:56 | 2026 Apr 24 05:57:27 | 55.6726 | 0.05832 | 8.6359 | 292.1001 | 52.6070 | 13.12248 | – |
| 2026 Apr 27 17:58 | 2026 Apr 24 05:57:27 | 55.6726 | 0.05832 | 8.6359 | 292.1001 | 52.6070 | 13.12248 | – |
| 2026 Apr 26 17:58 | 2026 Apr 24 05:57:27 | 55.6726 | 0.05832 | 8.6359 | 292.1001 | 52.6070 | 13.12248 | – |
| 2026 Apr 25 17:58 | 2026 Apr 24 05:57:27 | 55.6726 | 0.05832 | 8.6359 | 292.1001 | 52.6070 | 13.12248 | – |
| 2026 Apr 24 17:59 | 2026 Apr 24 05:57:27 | 55.6726 | 0.05832 | 8.6359 | 292.1001 | 52.6070 | 13.12248 | – |
| 2026 Apr 23 17:57 | 2026 Apr 19 08:56:38 | 55.6738 | 0.05830 | 9.6349 | 284.2293 | 52.6070 | 13.12248 | – |
| 2026 Apr 22 17:57 | 2026 Apr 19 08:56:38 | 55.6738 | 0.05830 | 9.6349 | 284.2293 | 52.6070 | 13.12248 | – |
| 2026 Apr 21 17:57 | 2026 Apr 19 08:56:38 | 55.6738 | 0.05830 | 9.6349 | 284.2293 | 52.6070 | 13.12248 | – |
| 2026 Apr 20 17:57 | 2026 Apr 19 08:56:38 | 55.6738 | 0.05830 | 9.6349 | 284.2293 | 52.6070 | 13.12248 | – |
| 2026 Apr 19 17:58 | 2026 Apr 19 08:56:38 | 55.6738 | 0.05830 | 9.6349 | 284.2293 | 52.6070 | 13.12248 | – |
| 2026 Apr 18 17:56 | 2026 Apr 13 04:50:56 | 55.6750 | 0.05827 | 10.8990 | 274.2669 | 52.6070 | 13.12248 | – |
| 2026 Apr 16 17:57 | 2026 Apr 13 04:50:56 | 55.6750 | 0.05827 | 10.8990 | 274.2669 | 52.6070 | 13.12248 | – |
| 2026 Apr 14 17:57 | 2026 Apr 13 04:50:56 | 55.6750 | 0.05827 | 10.8990 | 274.2669 | 52.6070 | 13.12248 | – |
| 2026 Apr 13 17:57 | 2026 Apr 13 04:50:56 | 55.6750 | 0.05827 | 10.8990 | 274.2669 | 52.6070 | 13.12248 | – |
| 2026 Apr 12 17:57 | 2026 Apr 08 13:19:15 | 55.6757 | 0.05824 | 11.8510 | 266.7628 | 52.6070 | 13.12248 | – |
| 2026 Apr 11 17:57 | 2026 Apr 08 13:19:15 | 55.6757 | 0.05824 | 11.8510 | 266.7628 | 52.6070 | 13.12248 | – |
| 2026 Apr 10 17:58 | 2026 Apr 08 13:19:15 | 55.6757 | 0.05824 | 11.8510 | 266.7628 | 52.6070 | 13.12248 | – |
| 2026 Apr 09 18:01 | 2026 Apr 08 13:19:15 | 55.6757 | 0.05824 | 11.8510 | 266.7628 | 52.6070 | 13.12248 | – |
| 2026 Apr 08 17:57 | 2026 Apr 08 13:19:15 | 55.6757 | 0.05824 | 11.8510 | 266.7628 | 52.6070 | 13.12248 | – |
| 2026 Apr 07 17:57 | 2026 Apr 01 09:27:27 | 55.6756 | 0.05822 | 13.3179 | 255.2016 | 52.6070 | 13.12248 | – |